Time;durP1;ratioP1;P1;durP2;ratioP2;P2;SDS_P1;SDS_P2;PMS_P1;PMS_P2;Temp;Humidity;BMP_temperature;BMP_pressure;BME280_temperature;BME280_humidity;BME280_pressure;Samples;Min_cycle;Max_cycle;Signal;HPM_P1;HPM_P2
2023/11/16 00:00:14;;;;;;;12.32;2.15;;;;;;;;;;5004660;28;20057;-73
2023/11/16 00:02:43;;;;;;;7.32;1.98;;;;;;;;;;5015444;28;20828;-74
2023/11/16 00:05:13;;;;;;;6.88;1.77;;;;;;;;;;5010842;28;20045;-74
2023/11/16 00:07:45;;;;;;;12.52;2.30;;;;;;;;;;5029039;28;20482;-73
2023/11/16 00:10:14;;;;;;;9.90;1.98;;;;;;;;;;5012638;28;20058;-72
2023/11/16 00:12:40;;;;;;;12.02;2.72;;;;;;;;;;5011223;28;20077;-72
2023/11/16 00:15:08;;;;;;;8.98;2.33;;;;;;;;;;5016026;28;20061;-73
2023/11/16 00:17:37;;;;;;;11.07;2.33;;;;;;;;;;5004055;28;20053;-74
2023/11/16 00:20:04;;;;;;;13.30;2.40;;;;;;;;;;5022735;28;20049;-74
2023/11/16 00:22:30;;;;;;;8.32;1.80;;;;;;;;;;5015814;28;20050;-73
2023/11/16 00:24:57;;;;;;;8.30;1.98;;;;;;;;;;5027040;28;20045;-73
2023/11/16 00:27:26;;;;;;;8.38;2.00;;;;;;;;;;5010060;28;20054;-74
2023/11/16 00:29:52;;;;;;;9.27;1.70;;;;;;;;;;5004612;28;20545;-73
2023/11/16 00:32:18;;;;;;;16.80;2.60;;;;;;;;;;5018332;28;20144;-72
2023/11/16 00:34:45;;;;;;;9.65;1.80;;;;;;;;;;5008372;28;20049;-73
2023/11/16 00:37:11;;;;;;;9.57;1.95;;;;;;;;;;5022859;28;20119;-73
2023/11/16 00:39:41;;;;;;;7.70;1.50;;;;;;;;;;5015287;28;20129;-73
2023/11/16 00:42:07;;;;;;;9.82;1.90;;;;;;;;;;5026197;28;20119;-72
2023/11/16 00:44:34;;;;;;;15.23;2.63;;;;;;;;;;5008269;28;20137;-73
2023/11/16 00:47:01;;;;;;;6.10;1.83;;;;;;;;;;5009375;28;20077;-72
2023/11/16 00:49:27;;;;;;;12.30;1.88;;;;;;;;;;5005519;28;20050;-72
2023/11/16 00:51:56;;;;;;;11.23;2.67;;;;;;;;;;5007677;28;20045;-72
2023/11/16 00:54:23;;;;;;;8.82;2.72;;;;;;;;;;5014818;28;20141;-73
2023/11/16 00:56:50;;;;;;;10.15;1.90;;;;;;;;;;5018869;28;20045;-73
2023/11/16 00:59:20;;;;;;;9.20;2.17;;;;;;;;;;5020130;28;20049;-72
2023/11/16 01:01:47;;;;;;;11.07;1.90;;;;;;;;;;5002539;28;20128;-74
2023/11/16 01:04:13;;;;;;;8.00;1.80;;;;;;;;;;5004861;28;20050;-72
2023/11/16 01:06:40;;;;;;;7.45;1.92;;;;;;;;;;5015943;28;20050;-73
2023/11/16 01:09:07;;;;;;;13.27;2.10;;;;;;;;;;5007367;28;20049;-72
2023/11/16 01:11:36;;;;;;;12.85;2.45;;;;;;;;;;5020442;28;20050;-74
2023/11/16 01:14:03;;;;;;;10.60;2.20;;;;;;;;;;5020157;28;20065;-73
2023/11/16 01:16:41;;;;;;;11.00;2.10;;;;;;;;;;5002891;28;20096;-72
2023/11/16 01:19:08;;;;;;;10.75;2.58;;;;;;;;;;5012798;28;21668;-72
2023/11/16 01:21:41;;;;;;;14.18;1.88;;;;;;;;;;5017145;28;20161;-73
2023/11/16 01:24:08;;;;;;;10.23;2.25;;;;;;;;;;5025734;28;20045;-74
2023/11/16 01:26:35;;;;;;;14.00;2.85;;;;;;;;;;5024724;28;20708;-73
2023/11/16 01:29:05;;;;;;;11.07;2.22;;;;;;;;;;5019431;28;20059;-73
2023/11/16 01:31:32;;;;;;;11.20;2.30;;;;;;;;;;5021570;28;20478;-74
2023/11/16 01:33:58;;;;;;;13.60;2.92;;;;;;;;;;5023997;28;20073;-73
2023/11/16 01:36:24;;;;;;;12.45;2.72;;;;;;;;;;5019717;28;20485;-73
2023/11/16 01:38:51;;;;;;;12.80;2.35;;;;;;;;;;5018038;28;20057;-73
2023/11/16 01:41:18;;;;;;;13.73;2.53;;;;;;;;;;5036372;28;20040;-74
2023/11/16 01:43:46;;;;;;;13.57;2.92;;;;;;;;;;5021642;28;20055;-74
2023/11/16 01:46:15;;;;;;;11.25;2.53;;;;;;;;;;5021042;28;20153;-74
2023/11/16 01:48:42;;;;;;;9.20;2.53;;;;;;;;;;5031048;28;20137;-74
2023/11/16 01:51:13;;;;;;;14.73;2.42;;;;;;;;;;5025491;28;20079;-74
2023/11/16 01:53:52;;;;;;;12.30;2.47;;;;;;;;;;5028288;28;20073;-74
2023/11/16 01:56:19;;;;;;;13.77;2.80;;;;;;;;;;5023881;28;20045;-74
2023/11/16 01:58:47;;;;;;;14.60;3.00;;;;;;;;;;5042356;28;20083;-74
2023/11/16 02:01:15;;;;;;;7.80;1.80;;;;;;;;;;5020758;28;20697;-74
2023/11/16 02:03:43;;;;;;;9.23;2.45;;;;;;;;;;5029479;28;20099;-74
2023/11/16 02:06:10;;;;;;;8.17;2.50;;;;;;;;;;5044492;28;20135;-77
2023/11/16 02:08:36;;;;;;;10.38;2.38;;;;;;;;;;5029737;28;20290;-74
2023/11/16 02:11:03;;;;;;;9.73;2.20;;;;;;;;;;5040719;28;20448;-74
2023/11/16 02:13:30;;;;;;;8.18;2.25;;;;;;;;;;5026572;28;20060;-74
2023/11/16 02:15:57;;;;;;;10.48;2.70;;;;;;;;;;5017114;28;20073;-73
2023/11/16 02:18:25;;;;;;;11.40;2.10;;;;;;;;;;5042745;28;20056;-73
2023/11/16 02:20:53;;;;;;;12.60;2.75;;;;;;;;;;5027991;28;20073;-73
2023/11/16 02:23:20;;;;;;;14.60;2.67;;;;;;;;;;5052063;28;20135;-74
2023/11/16 02:25:47;;;;;;;11.05;2.50;;;;;;;;;;5037654;28;20417;-73
2023/11/16 02:28:14;;;;;;;12.48;3.80;;;;;;;;;;5056118;28;20045;-73
2023/11/16 02:30:40;;;;;;;12.73;2.92;;;;;;;;;;5031806;28;20416;-73
2023/11/16 02:33:07;;;;;;;11.77;2.75;;;;;;;;;;5040636;28;20053;-73
2023/11/16 02:35:33;;;;;;;10.68;2.50;;;;;;;;;;5044161;28;20057;-74
2023/11/16 02:38:00;;;;;;;13.40;2.40;;;;;;;;;;5046885;28;20053;-74
2023/11/16 02:40:27;;;;;;;12.35;2.78;;;;;;;;;;5026480;28;20048;-74
2023/11/16 02:42:53;;;;;;;12.80;2.53;;;;;;;;;;5032750;28;20053;-74
2023/11/16 02:45:23;;;;;;;8.00;2.33;;;;;;;;;;5062419;28;20409;-74
2023/11/16 02:47:50;;;;;;;11.18;3.33;;;;;;;;;;5053457;28;20048;-74
2023/11/16 02:50:17;;;;;;;10.55;2.95;;;;;;;;;;5046105;28;20090;-75
2023/11/16 02:52:43;;;;;;;12.15;2.78;;;;;;;;;;5055544;28;20455;-76
2023/11/16 02:55:09;;;;;;;11.38;2.95;;;;;;;;;;5042618;28;20053;-75
2023/11/16 02:57:39;;;;;;;7.30;2.60;;;;;;;;;;5031368;28;20056;-75
2023/11/16 03:00:08;;;;;;;11.52;3.13;;;;;;;;;;5042066;28;20052;-75
2023/11/16 03:02:34;;;;;;;8.63;2.90;;;;;;;;;;5056459;28;20053;-75
2023/11/16 03:05:02;;;;;;;13.07;2.80;;;;;;;;;;5039620;28;20045;-76
2023/11/16 03:07:28;;;;;;;12.23;3.13;;;;;;;;;;5051589;28;20452;-75
2023/11/16 03:09:58;;;;;;;11.50;2.95;;;;;;;;;;5051233;28;20049;-75
2023/11/16 03:12:25;;;;;;;10.55;2.85;;;;;;;;;;5061724;28;20112;-75
2023/11/16 03:14:52;;;;;;;14.15;2.75;;;;;;;;;;5071214;28;20063;-75
2023/11/16 03:17:20;;;;;;;11.00;2.65;;;;;;;;;;5046426;28;20102;-75
2023/11/16 03:19:46;;;;;;;8.88;2.97;;;;;;;;;;5048174;28;20048;-75
2023/11/16 03:22:13;;;;;;;9.05;2.72;;;;;;;;;;5043350;28;20044;-75
2023/11/16 03:24:39;;;;;;;8.07;2.72;;;;;;;;;;5061965;28;20040;-75
2023/11/16 03:27:05;;;;;;;15.77;3.55;;;;;;;;;;5064097;28;20135;-76
2023/11/16 03:29:34;;;;;;;11.43;3.53;;;;;;;;;;5060930;28;20124;-75
2023/11/16 03:32:00;;;;;;;9.32;3.45;;;;;;;;;;5070092;28;20469;-76
2023/11/16 03:34:26;;;;;;;13.27;4.03;;;;;;;;;;5029921;28;20055;-75
2023/11/16 03:36:53;;;;;;;12.68;3.75;;;;;;;;;;5064515;28;20529;-75
2023/11/16 03:39:19;;;;;;;12.80;3.88;;;;;;;;;;5066828;28;20169;-75
2023/11/16 03:41:45;;;;;;;13.77;4.53;;;;;;;;;;5077511;28;20048;-75
2023/11/16 03:44:12;;;;;;;14.00;4.97;;;;;;;;;;5073044;28;20106;-75
2023/11/16 03:46:38;;;;;;;18.25;4.95;;;;;;;;;;5034832;28;20053;-75
2023/11/16 03:49:05;;;;;;;9.45;4.32;;;;;;;;;;5052078;28;20047;-75
2023/11/16 03:51:31;;;;;;;13.55;4.88;;;;;;;;;;5045929;28;20067;-74
2023/11/16 03:53:57;;;;;;;13.73;4.70;;;;;;;;;;5059908;28;20111;-75
2023/11/16 03:56:24;;;;;;;11.85;4.72;;;;;;;;;;5044314;28;20153;-77
2023/11/16 03:58:50;;;;;;;12.73;4.53;;;;;;;;;;5052091;28;20056;-75
2023/11/16 04:01:17;;;;;;;10.82;3.88;;;;;;;;;;5065539;28;20041;-75
2023/11/16 04:03:46;;;;;;;9.57;3.80;;;;;;;;;;5042884;28;20109;-75
2023/11/16 04:06:20;;;;;;;10.57;4.35;;;;;;;;;;5052324;28;20053;-75
2023/11/16 04:08:46;;;;;;;12.65;4.60;;;;;;;;;;5040125;28;20063;-76
2023/11/16 04:11:13;;;;;;;9.00;3.90;;;;;;;;;;5049426;28;20807;-75
2023/11/16 04:13:39;;;;;;;10.15;3.90;;;;;;;;;;5039905;28;20081;-76
2023/11/16 04:16:26;;;;;;;10.07;4.28;;;;;;;;;;5033547;28;20513;-75
2023/11/16 04:18:53;;;;;;;10.25;3.85;;;;;;;;;;5016404;28;20091;-74
2023/11/16 04:21:20;;;;;;;9.75;3.72;;;;;;;;;;5064044;28;20044;-75
2023/11/16 04:23:52;;;;;;;16.58;4.57;;;;;;;;;;5055926;28;20045;-75
2023/11/16 04:26:20;;;;;;;12.45;4.55;;;;;;;;;;5051818;28;20044;-75
2023/11/16 04:28:47;;;;;;;;;;;;;;;;;;5050880;28;20044;-75
2023/11/16 04:31:15;;;;;;;13.02;4.85;;;;;;;;;;5040363;28;19970;-75
2023/11/16 04:33:41;;;;;;;14.97;4.23;;;;;;;;;;5045399;28;20044;-74
2023/11/16 04:36:10;;;;;;;13.55;4.40;;;;;;;;;;5050513;28;20094;-74
2023/11/16 04:38:37;;;;;;;8.27;3.60;;;;;;;;;;5053218;28;21144;-75
2023/11/16 04:41:06;;;;;;;14.63;4.60;;;;;;;;;;5060695;28;20496;-75
2023/11/16 04:43:33;;;;;;;18.88;4.43;;;;;;;;;;5063501;28;20136;-74
2023/11/16 04:46:00;;;;;;;12.70;4.32;;;;;;;;;;5059788;28;20048;-75
2023/11/16 04:48:27;;;;;;;11.63;3.97;;;;;;;;;;5064286;28;20065;-74
2023/11/16 04:50:55;;;;;;;13.15;4.05;;;;;;;;;;5055202;28;20634;-74
2023/11/16 04:53:22;;;;;;;11.02;4.05;;;;;;;;;;5033365;28;20077;-74
2023/11/16 04:55:48;;;;;;;11.93;4.20;;;;;;;;;;5044786;28;20099;-74
2023/11/16 04:58:15;;;;;;;11.63;4.10;;;;;;;;;;5066924;28;20052;-75
2023/11/16 05:00:41;;;;;;;10.27;4.28;;;;;;;;;;5061052;28;20084;-74
2023/11/16 05:03:08;;;;;;;11.98;3.78;;;;;;;;;;5045874;28;20048;-74
2023/11/16 05:05:36;;;;;;;14.68;4.03;;;;;;;;;;5056848;28;20083;-74
2023/11/16 05:08:03;;;;;;;13.35;4.60;;;;;;;;;;5062940;28;20167;-75
2023/11/16 05:10:29;;;;;;;7.85;4.13;;;;;;;;;;5058774;28;20053;-75
2023/11/16 05:12:56;;;;;;;9.25;3.75;;;;;;;;;;5049207;28;20071;-74
2023/11/16 05:15:22;;;;;;;10.38;4.00;;;;;;;;;;5042100;28;20578;-74
2023/11/16 05:17:48;;;;;;;13.43;4.70;;;;;;;;;;5031480;28;20044;-74
2023/11/16 05:20:16;;;;;;;11.98;4.95;;;;;;;;;;5057633;28;20059;-74
2023/11/16 05:22:44;;;;;;;13.98;4.50;;;;;;;;;;5051793;28;20053;-74
2023/11/16 05:25:10;;;;;;;11.45;4.35;;;;;;;;;;5041075;28;20109;-76
2023/11/16 05:27:37;;;;;;;11.73;4.10;;;;;;;;;;5038726;28;20551;-74
2023/11/16 05:30:04;;;;;;;13.82;4.07;;;;;;;;;;5062707;28;20074;-75
2023/11/16 05:32:30;;;;;;;11.75;4.20;;;;;;;;;;5061818;28;20044;-74
2023/11/16 05:34:57;;;;;;;9.10;4.35;;;;;;;;;;5067944;28;20056;-75
2023/11/16 05:37:23;;;;;;;7.10;3.63;;;;;;;;;;5048160;28;20048;-74
2023/11/16 05:39:50;;;;;;;10.43;4.20;;;;;;;;;;5061898;28;20049;-75
2023/11/16 05:42:17;;;;;;;9.25;4.63;;;;;;;;;;5032990;28;20048;-74
2023/11/16 05:44:44;;;;;;;8.20;4.20;;;;;;;;;;5065217;28;20064;-74
2023/11/16 05:47:11;;;;;;;9.00;3.95;;;;;;;;;;5060609;28;20084;-75
2023/11/16 05:49:38;;;;;;;10.07;4.40;;;;;;;;;;5045293;28;20135;-75
2023/11/16 05:52:06;;;;;;;9.52;3.85;;;;;;;;;;5065786;28;20113;-75
2023/11/16 05:54:33;;;;;;;14.85;4.00;;;;;;;;;;5027795;28;20057;-74
2023/11/16 05:57:00;;;;;;;8.75;4.00;;;;;;;;;;5049994;28;20057;-74
2023/11/16 05:59:26;;;;;;;8.75;3.90;;;;;;;;;;5032303;28;20053;-75
2023/11/16 06:01:52;;;;;;;7.55;3.83;;;;;;;;;;5069021;28;20052;-75
2023/11/16 06:04:22;;;;;;;10.57;4.53;;;;;;;;;;5055333;28;20044;-74
2023/11/16 06:06:49;;;;;;;10.23;3.90;;;;;;;;;;5044543;28;20053;-74
2023/11/16 06:09:15;;;;;;;11.95;4.50;;;;;;;;;;5039127;28;20447;-72
2023/11/16 06:11:42;;;;;;;10.63;4.45;;;;;;;;;;5048728;28;20063;-74
2023/11/16 06:14:09;;;;;;;12.65;4.57;;;;;;;;;;5062158;28;20057;-73
2023/11/16 06:16:43;;;;;;;9.20;4.07;;;;;;;;;;5059124;28;20136;-73
2023/11/16 06:19:10;;;;;;;7.60;3.85;;;;;;;;;;5046911;28;20118;-75
2023/11/16 06:21:40;;;;;;;8.38;4.15;;;;;;;;;;5045538;28;20094;-73
2023/11/16 06:24:07;;;;;;;9.63;4.00;;;;;;;;;;5044715;28;20550;-73
2023/11/16 06:26:33;;;;;;;10.40;3.85;;;;;;;;;;5063735;28;20080;-74
2023/11/16 06:29:00;;;;;;;11.07;3.95;;;;;;;;;;5041296;28;20136;-74
2023/11/16 06:31:26;;;;;;;9.35;4.00;;;;;;;;;;5047343;28;20110;-73
2023/11/16 06:33:53;;;;;;;11.23;4.60;;;;;;;;;;5048310;28;20052;-75
2023/11/16 06:36:23;;;;;;;15.52;8.95;;;;;;;;;;5037920;28;20543;-74
2023/11/16 06:38:50;;;;;;;23.83;15.57;;;;;;;;;;5077036;28;20531;-74
2023/11/16 06:41:16;;;;;;;12.95;8.32;;;;;;;;;;5052725;28;20349;-73
2023/11/16 06:43:42;;;;;;;9.55;5.53;;;;;;;;;;5048527;28;20541;-74
2023/11/16 06:46:12;;;;;;;10.10;5.05;;;;;;;;;;5042789;28;20131;-74
2023/11/16 06:48:39;;;;;;;10.35;5.57;;;;;;;;;;5065065;28;20066;-74
2023/11/16 06:51:08;;;;;;;10.40;6.03;;;;;;;;;;5055759;28;20053;-73
2023/11/16 06:53:35;;;;;;;9.20;4.10;;;;;;;;;;5050914;28;20127;-73
2023/11/16 06:56:04;;;;;;;7.18;4.03;;;;;;;;;;5042291;28;20052;-73
2023/11/16 06:58:31;;;;;;;;;;;;;;;;;;5059575;28;20049;-74
2023/11/16 07:00:58;;;;;;;7.82;3.70;;;;;;;;;;5066261;28;20017;-74
2023/11/16 07:03:25;;;;;;;12.57;4.95;;;;;;;;;;5048505;28;20126;-74
2023/11/16 07:05:52;;;;;;;9.85;4.18;;;;;;;;;;5035992;28;20053;-74
2023/11/16 07:08:19;;;;;;;8.63;4.07;;;;;;;;;;5046956;28;20402;-74
2023/11/16 07:10:46;;;;;;;13.70;4.10;;;;;;;;;;5041074;28;20067;-74
2023/11/16 07:13:15;;;;;;;11.13;4.00;;;;;;;;;;5066388;28;20556;-73
2023/11/16 07:15:45;;;;;;;8.30;4.60;;;;;;;;;;5046050;28;20044;-73
2023/11/16 07:18:12;;;;;;;11.25;3.75;;;;;;;;;;5045210;28;20462;-74
2023/11/16 07:20:40;;;;;;;23.77;5.20;;;;;;;;;;5055183;28;20048;-74
2023/11/16 07:23:06;;;;;;;19.42;4.90;;;;;;;;;;5058550;28;20135;-74
2023/11/16 07:25:33;;;;;;;28.92;6.18;;;;;;;;;;5050156;28;20044;-73
2023/11/16 07:27:59;;;;;;;25.98;4.80;;;;;;;;;;5065216;28;20540;-74
2023/11/16 07:30:26;;;;;;;27.45;4.88;;;;;;;;;;5047919;28;20047;-74
2023/11/16 07:32:52;;;;;;;19.63;5.13;;;;;;;;;;5051490;28;20053;-74
2023/11/16 07:35:19;;;;;;;16.20;3.63;;;;;;;;;;5055733;28;20062;-74
2023/11/16 07:37:47;;;;;;;8.07;3.60;;;;;;;;;;5059850;28;20057;-74
2023/11/16 07:40:15;;;;;;;25.52;4.07;;;;;;;;;;5045521;28;20076;-74
2023/11/16 07:42:42;;;;;;;38.28;4.60;;;;;;;;;;5045697;28;20111;-74
2023/11/16 07:45:09;;;;;;;47.78;4.82;;;;;;;;;;5054777;28;20134;-69
2023/11/16 07:47:39;;;;;;;17.83;4.82;;;;;;;;;;5040920;28;20052;-69
2023/11/16 07:50:05;;;;;;;15.43;4.18;;;;;;;;;;5053438;28;20052;-69
2023/11/16 07:52:42;;;;;;;8.00;4.20;;;;;;;;;;5071921;28;20048;-68
2023/11/16 07:55:15;;;;;;;7.38;4.28;;;;;;;;;;5058264;28;20044;-68
2023/11/16 07:57:47;;;;;;;9.00;4.03;;;;;;;;;;5063452;28;20053;-69
2023/11/16 08:00:22;;;;;;;19.42;3.53;;;;;;;;;;5043673;28;20057;-69
2023/11/16 08:05:37;;;;;;;20.83;4.00;;;;;;;;;;5069575;28;20131;-69
2023/11/16 08:08:11;;;;;;;25.38;4.00;;;;;;;;;;5047300;28;20045;-69
2023/11/16 08:10:38;;;;;;;33.08;4.40;;;;;;;;;;5051398;28;20063;-69
2023/11/16 08:13:05;;;;;;;16.27;3.88;;;;;;;;;;5064562;28;20111;-69
2023/11/16 08:15:32;;;;;;;11.07;3.88;;;;;;;;;;5039885;28;20090;-69
2023/11/16 08:17:59;;;;;;;48.60;5.53;;;;;;;;;;5055137;28;20045;-69
2023/11/16 08:20:28;;;;;;;29.05;3.70;;;;;;;;;;5045217;28;20060;-69
2023/11/16 08:22:56;;;;;;;36.35;4.03;;;;;;;;;;5076383;28;20063;-68
2023/11/16 08:25:23;;;;;;;11.52;3.72;;;;;;;;;;5039222;28;20609;-69
2023/11/16 08:27:51;;;;;;;9.52;3.63;;;;;;;;;;5045196;28;20557;-69
2023/11/16 08:30:18;;;;;;;7.78;3.58;;;;;;;;;;5049318;28;20053;-69
2023/11/16 08:32:45;;;;;;;11.88;4.22;;;;;;;;;;5050731;28;20052;-69
2023/11/16 08:35:13;;;;;;;9.55;3.97;;;;;;;;;;5067945;28;20057;-68
2023/11/16 08:37:41;;;;;;;14.15;5.15;;;;;;;;;;5062971;28;20080;-69
2023/11/16 08:40:12;;;;;;;23.08;5.10;;;;;;;;;;5048599;28;20551;-69
2023/11/16 08:42:42;;;;;;;10.13;5.03;;;;;;;;;;5049993;28;20060;-69
2023/11/16 08:45:17;;;;;;;16.35;4.18;;;;;;;;;;5057400;28;20041;-69
2023/11/16 08:47:45;;;;;;;21.52;4.78;;;;;;;;;;5060131;28;20061;-69
2023/11/16 08:50:12;;;;;;;11.30;5.13;;;;;;;;;;5050060;28;20044;-68
2023/11/16 08:52:46;;;;;;;18.52;4.78;;;;;;;;;;5068862;28;20048;-69
2023/11/16 08:55:14;;;;;;;16.65;5.57;;;;;;;;;;5048407;28;20046;-69
2023/11/16 08:57:42;;;;;;;13.48;6.25;;;;;;;;;;5075239;28;20075;-69
2023/11/16 09:00:27;;;;;;;17.03;8.83;;;;;;;;;;5038828;28;20055;-69
2023/11/16 09:02:57;;;;;;;12.73;7.28;;;;;;;;;;5061039;28;20048;-69
2023/11/16 09:05:24;;;;;;;16.20;8.60;;;;;;;;;;5050785;28;20657;-69
2023/11/16 09:07:51;;;;;;;14.25;7.45;;;;;;;;;;5056648;28;20101;-69
2023/11/16 09:10:19;;;;;;;11.93;8.43;;;;;;;;;;5054483;28;20053;-69
2023/11/16 09:12:45;;;;;;;15.37;8.10;;;;;;;;;;5049387;28;20041;-69
2023/11/16 09:15:12;;;;;;;15.13;8.88;;;;;;;;;;5056801;28;20300;-68
2023/11/16 09:17:38;;;;;;;14.75;10.05;;;;;;;;;;5057171;28;20571;-68
2023/11/16 09:20:10;;;;;;;15.43;9.05;;;;;;;;;;5062141;28;20139;-69
2023/11/16 09:22:36;;;;;;;14.30;9.07;;;;;;;;;;5050360;28;20044;-69
2023/11/16 09:25:06;;;;;;;14.98;8.93;;;;;;;;;;5060945;28;20455;-69
2023/11/16 09:27:38;;;;;;;19.10;9.30;;;;;;;;;;5063036;28;20040;-69
2023/11/16 09:30:05;;;;;;;14.10;7.63;;;;;;;;;;5056432;28;20052;-70
2023/11/16 09:32:32;;;;;;;13.98;8.27;;;;;;;;;;5056425;28;20539;-69
2023/11/16 09:35:03;;;;;;;13.38;8.15;;;;;;;;;;5057922;28;20052;-69
2023/11/16 09:37:45;;;;;;;20.25;10.35;;;;;;;;;;5064423;28;20059;-69
2023/11/16 09:40:21;;;;;;;16.80;9.13;;;;;;;;;;5065167;28;20470;-69
2023/11/16 09:43:00;;;;;;;23.77;9.10;;;;;;;;;;5054924;28;20132;-68
2023/11/16 09:45:27;;;;;;;13.50;8.98;;;;;;;;;;5053690;28;20047;-68
2023/11/16 09:48:14;;;;;;;20.98;9.77;;;;;;;;;;5061077;28;20076;-69
2023/11/16 09:50:48;;;;;;;20.67;11.10;;;;;;;;;;5053590;28;20109;-69
2023/11/16 09:53:22;;;;;;;22.05;11.13;;;;;;;;;;5047209;28;20095;-68
2023/11/16 09:55:50;;;;;;;17.80;10.68;;;;;;;;;;5059236;28;20060;-68
2023/11/16 09:58:21;;;;;;;17.90;10.88;;;;;;;;;;5048156;28;20045;-69
2023/11/16 10:00:49;;;;;;;16.45;11.25;;;;;;;;;;5054059;28;20471;-68
2023/11/16 10:03:19;;;;;;;20.27;12.18;;;;;;;;;;5049233;28;20291;-68
2023/11/16 10:05:46;;;;;;;21.00;12.68;;;;;;;;;;5044724;28;20049;-69
2023/11/16 10:08:17;;;;;;;21.52;12.35;;;;;;;;;;5058846;28;20044;-69
2023/11/16 10:10:54;;;;;;;18.90;12.85;;;;;;;;;;5053424;28;20501;-69
2023/11/16 10:13:24;;;;;;;22.15;12.63;;;;;;;;;;5065107;28;20051;-68
2023/11/16 10:15:52;;;;;;;26.90;13.30;;;;;;;;;;5055189;28;20079;-69
2023/11/16 10:18:19;;;;;;;19.42;12.88;;;;;;;;;;5041392;28;20056;-69
2023/11/16 10:20:46;;;;;;;21.60;13.63;;;;;;;;;;5058718;28;20505;-68
2023/11/16 10:23:12;;;;;;;22.67;14.48;;;;;;;;;;5034570;28;20051;-69
2023/11/16 10:25:39;;;;;;;27.55;14.50;;;;;;;;;;5063877;28;20123;-68
2023/11/16 10:28:14;;;;;;;23.92;14.48;;;;;;;;;;5044908;28;20131;-69
2023/11/16 10:30:45;;;;;;;22.50;14.32;;;;;;;;;;5048524;28;20519;-70
2023/11/16 10:33:12;;;;;;;19.33;12.15;;;;;;;;;;5071691;28;20045;-69
2023/11/16 10:35:39;;;;;;;27.30;15.30;;;;;;;;;;5062709;28;20106;-68
2023/11/16 10:38:07;;;;;;;23.63;15.07;;;;;;;;;;5068536;28;20052;-69
2023/11/16 10:40:34;;;;;;;18.17;13.77;;;;;;;;;;5048550;28;20136;-69
2023/11/16 10:43:01;;;;;;;22.42;12.90;;;;;;;;;;5059951;28;20064;-69
2023/11/16 10:45:27;;;;;;;23.10;14.18;;;;;;;;;;5055017;28;20131;-68
2023/11/16 10:47:53;;;;;;;23.33;14.48;;;;;;;;;;5057855;28;20106;-69
2023/11/16 10:50:20;;;;;;;20.75;13.77;;;;;;;;;;5055080;28;20095;-69
2023/11/16 10:52:48;;;;;;;25.40;14.20;;;;;;;;;;5042471;28;20471;-68
2023/11/16 10:55:16;;;;;;;22.98;13.90;;;;;;;;;;5057263;28;20041;-69
2023/11/16 10:57:48;;;;;;;21.63;13.70;;;;;;;;;;5060317;28;20055;-70
2023/11/16 11:00:18;;;;;;;23.95;13.95;;;;;;;;;;5053519;28;20049;-69
2023/11/16 11:02:49;;;;;;;27.48;15.00;;;;;;;;;;5065985;28;20044;-69
2023/11/16 11:05:17;;;;;;;26.65;15.90;;;;;;;;;;5036010;28;20044;-69
2023/11/16 11:07:53;;;;;;;24.63;14.95;;;;;;;;;;5063964;28;20143;-70
2023/11/16 11:10:27;;;;;;;22.13;14.80;;;;;;;;;;5055226;28;20037;-69
2023/11/16 11:12:54;;;;;;;27.65;14.65;;;;;;;;;;5060744;28;20416;-70
2023/11/16 11:15:29;;;;;;;19.45;12.90;;;;;;;;;;5060252;28;20044;-69
2023/11/16 11:17:58;;;;;;;21.67;13.57;;;;;;;;;;5063293;28;20052;-68
2023/11/16 11:20:31;;;;;;;25.60;13.63;;;;;;;;;;5054472;28;20095;-69
2023/11/16 11:23:06;;;;;;;22.42;11.93;;;;;;;;;;5040081;28;20056;-70
2023/11/16 11:25:36;;;;;;;18.20;11.50;;;;;;;;;;5033695;28;20048;-69
2023/11/16 11:28:04;;;;;;;19.92;11.25;;;;;;;;;;5048248;28;20390;-69
2023/11/16 11:30:32;;;;;;;16.27;10.02;;;;;;;;;;5066570;28;20127;-69
2023/11/16 11:32:59;;;;;;;21.67;11.50;;;;;;;;;;5060957;28;20053;-68
2023/11/16 11:35:37;;;;;;;19.75;10.40;;;;;;;;;;5049712;28;20136;-70
2023/11/16 11:38:18;;;;;;;13.35;8.10;;;;;;;;;;5066226;28;20040;-68
2023/11/16 11:40:54;;;;;;;16.60;9.05;;;;;;;;;;5058949;28;20059;-69
2023/11/16 11:43:24;;;;;;;19.55;8.63;;;;;;;;;;5052042;28;20690;-68
2023/11/16 11:45:52;;;;;;;12.27;7.88;;;;;;;;;;5052690;28;20056;-68
2023/11/16 11:48:19;;;;;;;16.30;8.40;;;;;;;;;;5049789;28;20037;-68
2023/11/16 11:50:45;;;;;;;13.85;8.23;;;;;;;;;;5067202;28;20044;-69
2023/11/16 11:53:16;;;;;;;17.50;7.60;;;;;;;;;;5069950;28;20455;-68
2023/11/16 11:55:45;;;;;;;15.48;7.80;;;;;;;;;;5055415;28;20508;-68
2023/11/16 11:58:12;;;;;;;13.77;8.48;;;;;;;;;;5067639;28;20095;-69
2023/11/16 12:00:48;;;;;;;13.55;7.95;;;;;;;;;;5055537;28;20061;-68
2023/11/16 12:03:16;;;;;;;13.70;8.20;;;;;;;;;;5063939;28;20053;-68
2023/11/16 12:05:45;;;;;;;16.35;8.60;;;;;;;;;;5048571;28;20128;-68
2023/11/16 12:08:12;;;;;;;16.02;8.65;;;;;;;;;;5050678;28;20476;-68
2023/11/16 12:10:39;;;;;;;15.75;9.60;;;;;;;;;;5070997;28;20102;-68
2023/11/16 12:13:07;;;;;;;18.00;10.13;;;;;;;;;;5038751;28;20053;-68
2023/11/16 12:15:34;;;;;;;17.23;8.88;;;;;;;;;;5066259;28;20059;-67
2023/11/16 12:18:10;;;;;;;16.67;8.80;;;;;;;;;;5060618;28;20048;-67
2023/11/16 12:20:37;;;;;;;21.40;11.00;;;;;;;;;;5055289;28;20064;-68
2023/11/16 12:23:05;;;;;;;20.60;11.25;;;;;;;;;;5053695;28;20049;-68
2023/11/16 12:25:33;;;;;;;24.33;12.67;;;;;;;;;;5064955;28;20131;-69
2023/11/16 12:28:00;;;;;;;30.20;13.88;;;;;;;;;;5070788;28;20102;-68
2023/11/16 12:30:26;;;;;;;23.15;12.77;;;;;;;;;;5061567;28;20041;-68
2023/11/16 12:32:53;;;;;;;27.42;13.70;;;;;;;;;;5062123;28;20052;-69
2023/11/16 12:35:19;;;;;;;29.08;12.88;;;;;;;;;;5064106;28;20049;-68
2023/11/16 12:37:46;;;;;;;21.48;12.45;;;;;;;;;;5056481;28;20139;-68
2023/11/16 12:40:19;;;;;;;18.02;10.90;;;;;;;;;;5054183;28;20087;-69
2023/11/16 12:42:48;;;;;;;24.08;12.13;;;;;;;;;;5057926;28;20083;-68
2023/11/16 12:45:14;;;;;;;23.08;12.18;;;;;;;;;;5053461;28;20669;-68
2023/11/16 12:47:40;;;;;;;21.60;10.63;;;;;;;;;;5056107;28;20057;-68
2023/11/16 12:50:08;;;;;;;20.80;10.82;;;;;;;;;;5069970;28;20045;-69
2023/11/16 12:52:35;;;;;;;16.80;9.98;;;;;;;;;;5058245;28;20047;-68
2023/11/16 12:55:04;;;;;;;21.42;10.27;;;;;;;;;;5059843;28;20151;-68
2023/11/16 12:57:31;;;;;;;16.98;9.30;;;;;;;;;;5070174;28;20091;-70
2023/11/16 12:59:58;;;;;;;15.85;9.52;;;;;;;;;;5057941;28;20064;-68
2023/11/16 13:02:24;;;;;;;21.10;9.40;;;;;;;;;;5082400;28;20056;-70
2023/11/16 13:04:51;;;;;;;12.00;7.60;;;;;;;;;;5075177;28;20040;-68
2023/11/16 13:07:17;;;;;;;15.63;8.50;;;;;;;;;;5051342;28;20167;-69
2023/11/16 13:09:44;;;;;;;18.90;8.98;;;;;;;;;;5063351;28;20056;-68
2023/11/16 13:12:11;;;;;;;17.45;9.73;;;;;;;;;;5054014;28;20063;-69
2023/11/16 13:14:48;;;;;;;12.57;7.97;;;;;;;;;;5063251;28;20052;-69
2023/11/16 13:17:14;;;;;;;15.25;8.88;;;;;;;;;;5049870;28;20053;-69
2023/11/16 13:19:40;;;;;;;14.13;8.55;;;;;;;;;;5062726;28;20079;-68
2023/11/16 13:22:07;;;;;;;14.32;8.05;;;;;;;;;;5034597;28;20044;-69
2023/11/16 13:24:33;;;;;;;15.95;8.98;;;;;;;;;;5068172;28;20076;-68
2023/11/16 13:27:00;;;;;;;10.93;6.68;;;;;;;;;;5056283;28;20510;-68
2023/11/16 13:29:26;;;;;;;13.70;7.97;;;;;;;;;;5059409;28;20045;-69
2023/11/16 13:31:53;;;;;;;14.63;8.13;;;;;;;;;;5044844;28;20127;-68
2023/11/16 13:34:20;;;;;;;13.52;8.02;;;;;;;;;;5053249;28;20094;-69
2023/11/16 13:36:47;;;;;;;13.98;7.88;;;;;;;;;;5054723;28;20053;-68
2023/11/16 13:39:15;;;;;;;12.25;7.75;;;;;;;;;;5061290;28;20056;-69
2023/11/16 13:41:45;;;;;;;12.40;7.93;;;;;;;;;;5070194;28;20694;-69
2023/11/16 13:44:12;;;;;;;12.35;7.20;;;;;;;;;;5063940;28;20465;-70
2023/11/16 13:46:39;;;;;;;12.07;6.70;;;;;;;;;;5043023;28;20076;-69
2023/11/16 13:49:05;;;;;;;14.13;6.80;;;;;;;;;;5058563;28;20048;-70
2023/11/16 13:51:31;;;;;;;13.02;6.70;;;;;;;;;;5063629;28;20151;-68
2023/11/16 13:53:58;;;;;;;8.82;5.60;;;;;;;;;;5060420;28;20106;-69
2023/11/16 13:56:25;;;;;;;11.82;6.55;;;;;;;;;;5059998;28;20059;-69
2023/11/16 13:58:52;;;;;;;11.75;7.57;;;;;;;;;;5060384;28;20073;-68
2023/11/16 14:01:22;;;;;;;12.10;7.30;;;;;;;;;;5044715;28;20052;-69
2023/11/16 14:03:49;;;;;;;11.68;7.10;;;;;;;;;;5030994;28;20052;-68
2023/11/16 14:06:16;;;;;;;13.68;7.40;;;;;;;;;;5062528;28;20131;-69
2023/11/16 14:08:43;;;;;;;15.18;8.15;;;;;;;;;;5055745;28;20044;-69
2023/11/16 14:11:11;;;;;;;15.60;7.38;;;;;;;;;;5055529;28;20047;-69
2023/11/16 14:13:43;;;;;;;10.32;7.20;;;;;;;;;;5062703;28;20487;-70
2023/11/16 14:16:10;;;;;;;11.70;6.70;;;;;;;;;;5059199;28;20060;-69
2023/11/16 14:18:39;;;;;;;12.52;6.35;;;;;;;;;;5051157;28;20052;-69
2023/11/16 14:21:08;;;;;;;12.20;7.13;;;;;;;;;;5052208;28;20492;-68
2023/11/16 14:23:35;;;;;;;12.32;6.82;;;;;;;;;;5056065;28;20147;-68
2023/11/16 14:26:05;;;;;;;10.88;6.00;;;;;;;;;;5049708;28;20053;-68
2023/11/16 14:28:33;;;;;;;8.93;6.05;;;;;;;;;;5061791;28;20056;-68
2023/11/16 14:31:00;;;;;;;12.53;6.63;;;;;;;;;;5063138;28;20048;-68
2023/11/16 14:33:26;;;;;;;11.77;7.07;;;;;;;;;;5054320;28;20286;-68
2023/11/16 14:35:53;;;;;;;10.93;6.25;;;;;;;;;;5058346;28;20612;-68
2023/11/16 14:38:19;;;;;;;9.45;5.32;;;;;;;;;;5063137;28;20053;-68